Time;durP1;ratioP1;P1;durP2;ratioP2;P2;SDS_P1;SDS_P2;PMS_P1;PMS_P2;Temp;Humidity;BMP_temperature;BMP_pressure;BME280_temperature;BME280_humidity;BME280_pressure;Samples;Min_cycle;Max_cycle;Signal;HPM_P1;HPM_P2
2021/03/18 00:01:47;;;;;;;9.82;4.32;;;;;;;10.69;72.95;103125.91;4993835;28;20080;-91
2021/03/18 00:04:16;;;;;;;11.82;3.90;;;;;;;10.75;72.66;103124.78;5017514;28;20487;-93
2021/03/18 00:06:43;;;;;;;18.40;4.60;;;;;;;10.77;72.74;103117.00;5008603;28;20053;-92
2021/03/18 00:09:13;;;;;;;13.98;4.80;;;;;;;10.73;73.05;103115.91;5013146;28;20046;-91
2021/03/18 00:11:45;;;;;;;9.57;3.70;;;;;;;10.72;73.02;103126.16;5026043;28;20092;-91
2021/03/18 00:14:13;;;;;;;14.85;3.30;;;;;;;10.68;73.32;103129.78;5014591;28;20113;-90
2021/03/18 00:16:40;;;;;;;9.98;3.78;;;;;;;10.68;73.27;103130.63;5014784;28;20124;-91
2021/03/18 00:19:07;;;;;;;9.98;3.50;;;;;;;10.68;73.21;103125.09;5014821;28;20042;-90
2021/03/18 00:21:34;;;;;;;10.23;3.85;;;;;;;10.70;73.24;103133.94;5013815;28;20085;-90
2021/03/18 00:24:00;;;;;;;9.13;4.55;;;;;;;10.68;73.47;103136.16;5013097;28;20073;-91
2021/03/18 00:26:29;;;;;;;6.43;3.50;;;;;;;10.66;73.37;103121.78;5013887;28;20042;-91
2021/03/18 00:28:55;;;;;;;8.38;4.15;;;;;;;10.64;73.63;103124.03;5014083;28;20122;-91
2021/03/18 00:31:24;;;;;;;9.52;3.85;;;;;;;10.61;73.74;103107.13;5013572;28;20096;-91
2021/03/18 00:33:52;;;;;;;7.97;4.18;;;;;;;10.62;73.77;103104.06;5017090;28;20038;-91
2021/03/18 00:36:19;;;;;;;9.95;4.00;;;;;;;10.62;73.69;103097.69;5016066;28;20038;-91
2021/03/18 00:38:46;;;;;;;11.88;3.85;;;;;;;10.61;73.97;103107.13;5030842;28;20443;-91
2021/03/18 00:41:12;;;;;;;9.90;5.28;;;;;;;10.56;74.07;103104.41;5036652;28;20288;-91
2021/03/18 00:43:39;;;;;;;11.35;4.78;;;;;;;10.57;73.87;103100.50;5037364;28;20083;-91
2021/03/18 00:46:06;;;;;;;6.93;3.67;;;;;;;10.56;74.11;103094.16;5035992;28;20131;-92
2021/03/18 00:48:34;;;;;;;8.18;4.00;;;;;;;10.58;74.27;103089.16;5019115;28;20103;-91
2021/03/18 00:51:05;;;;;;;12.95;4.70;;;;;;;10.58;74.16;103091.09;5036690;28;20052;-92
2021/03/18 00:53:44;;;;;;;8.23;3.90;;;;;;;10.55;74.25;103086.13;5036424;28;20065;-91
2021/03/18 00:56:14;;;;;;;6.82;3.28;;;;;;;10.53;74.58;103082.81;5036786;28;20137;-91
2021/03/18 00:58:41;;;;;;;6.30;3.38;;;;;;;10.51;74.73;103085.06;5027295;28;20038;-90
2021/03/18 01:01:08;;;;;;;11.43;5.35;;;;;;;10.46;75.01;103080.34;4999433;28;20477;-92
2021/03/18 01:03:37;;;;;;;14.25;4.80;;;;;;;10.47;75.21;103078.41;4983045;28;20559;-90
2021/03/18 01:06:13;;;;;;;7.75;3.75;;;;;;;10.47;75.47;103078.41;5016547;28;20050;-90
2021/03/18 01:08:40;;;;;;;5.85;3.75;;;;;;;10.48;75.07;103085.63;4997276;28;20094;-91
2021/03/18 01:11:14;;;;;;;10.55;3.85;;;;;;;10.50;75.35;103086.16;5002053;28;20041;-91
2021/03/18 01:13:47;;;;;;;10.35;4.35;;;;;;;10.53;75.08;103082.81;5016176;28;20129;-90
2021/03/18 01:16:20;;;;;;;17.15;5.95;;;;;;;10.53;75.45;103089.19;5016212;28;20052;-91
2021/03/18 01:18:48;;;;;;;8.85;4.35;;;;;;;10.55;75.17;103091.66;5016684;28;20100;-92
2021/03/18 01:21:17;;;;;;;8.90;4.25;;;;;;;10.51;75.64;103074.78;5015641;28;20046;-91
2021/03/18 01:23:45;;;;;;;6.60;4.25;;;;;;;10.53;75.61;103085.59;4996874;28;20100;-90
2021/03/18 01:26:11;;;;;;;9.65;4.78;;;;;;;10.54;75.84;103073.41;5009468;28;20046;-90
2021/03/18 01:28:38;;;;;;;7.18;4.55;;;;;;;10.53;75.87;103082.81;5016407;28;20152;-91
2021/03/18 01:31:07;;;;;;;8.60;4.47;;;;;;;10.55;75.91;103089.72;5009512;28;20548;-91
2021/03/18 01:33:35;;;;;;;8.13;4.97;;;;;;;10.55;76.38;103080.59;5016332;28;20049;-90
2021/03/18 01:36:03;;;;;;;8.02;5.72;;;;;;;10.56;76.49;103082.25;5007105;28;20076;-91
2021/03/18 01:38:31;;;;;;;6.43;4.50;;;;;;;10.56;76.42;103088.63;4982431;28;20046;-92
2021/03/18 01:40:57;;;;;;;9.50;5.15;;;;;;;10.57;76.51;103081.13;4998356;28;20132;-90
2021/03/18 01:43:26;;;;;;;9.20;4.68;;;;;;;10.59;76.55;103076.13;5015562;28;20038;-92
2021/03/18 01:45:53;;;;;;;9.93;6.10;;;;;;;10.58;76.89;103071.69;4998041;28;20049;-90
2021/03/18 01:48:21;;;;;;;10.20;6.20;;;;;;;10.59;76.83;103070.59;5016063;28;20046;-90
2021/03/18 01:50:48;;;;;;;9.60;5.35;;;;;;;10.60;76.71;103066.69;5015723;28;20037;-90
2021/03/18 01:53:16;;;;;;;9.10;6.28;;;;;;;10.55;77.42;103058.41;5015634;28;20129;-90
2021/03/18 01:55:44;;;;;;;12.63;5.30;;;;;;;10.58;77.34;103060.63;5008416;28;20046;-91
2021/03/18 01:58:11;;;;;;;10.43;6.78;;;;;;;10.60;77.22;103061.16;4995901;28;20034;-91
2021/03/18 02:00:40;;;;;;;10.93;6.32;;;;;;;10.59;77.22;103059.50;4996198;28;20042;-90
2021/03/18 02:03:07;;;;;;;14.15;7.55;;;;;;;10.58;77.48;103060.63;5011331;28;20074;-91
2021/03/18 02:05:34;;;;;;;14.38;7.47;;;;;;;10.59;77.71;103067.81;4994459;28;20129;-91
2021/03/18 02:08:01;;;;;;;16.25;7.95;;;;;;;10.60;77.49;103055.59;4994857;28;20467;-90
2021/03/18 02:10:30;;;;;;;17.80;8.75;;;;;;;10.60;77.65;103058.38;4994685;28;20486;-90
2021/03/18 02:12:58;;;;;;;12.60;7.50;;;;;;;10.60;77.32;103058.38;4995717;28;20371;-91
2021/03/18 02:15:28;;;;;;;21.15;8.43;;;;;;;10.58;77.68;103052.31;4995249;28;20453;-91
2021/03/18 02:18:12;;;;;;;18.30;8.77;;;;;;;10.57;77.84;103061.72;4995582;28;20400;-92
2021/03/18 02:21:10;;;;;;;17.08;10.05;;;;;;;10.55;78.15;103058.41;4995788;28;20122;-91
2021/03/18 02:24:07;;;;;;;18.08;8.65;;;;;;;10.51;78.83;103046.28;4995342;28;20085;-90
2021/03/18 02:27:03;;;;;;;23.13;10.98;;;;;;;10.49;79.10;103054.88;5009743;28;20521;-91
2021/03/18 02:29:51;;;;;;;17.30;9.52;;;;;;;10.51;78.23;103046.28;5014897;28;20072;-90
2021/03/18 02:32:42;;;;;;;21.65;8.95;;;;;;;10.50;77.96;103041.84;4999975;28;20125;-91
2021/03/18 02:35:35;;;;;;;20.25;8.90;;;;;;;10.47;78.28;103045.19;5014230;28;20069;-90
2021/03/18 02:38:10;;;;;;;20.33;9.32;;;;;;;10.44;78.38;103046.59;4998138;28;20506;-91
2021/03/18 02:40:41;;;;;;;15.13;8.50;;;;;;;10.46;78.15;103049.91;5004052;28;20569;-90
2021/03/18 02:43:10;;;;;;;16.85;7.97;;;;;;;10.46;78.17;103052.66;5015176;28;20042;-91
2021/03/18 02:45:42;;;;;;;20.77;8.43;;;;;;;10.41;78.55;103047.16;5015031;28;20124;-90
2021/03/18 02:48:13;;;;;;;19.30;8.63;;;;;;;10.39;78.62;103041.94;4997397;28;20077;-91
2021/03/18 02:50:40;;;;;;;18.67;10.27;;;;;;;10.38;78.55;103034.72;4981570;28;20052;-90
2021/03/18 02:53:08;;;;;;;22.58;10.90;;;;;;;10.38;78.89;103037.50;4981266;28;20136;-90
2021/03/18 02:55:43;;;;;;;14.25;8.60;;;;;;;10.42;78.68;103043.28;5006224;28;20531;-92
2021/03/18 02:58:12;;;;;;;19.48;9.63;;;;;;;10.46;78.59;103049.09;5010502;28;20080;-91
2021/03/18 03:00:39;;;;;;;22.27;11.60;;;;;;;10.48;78.72;103046.84;5009867;28;20548;-90
2021/03/18 03:03:07;;;;;;;25.10;12.30;;;;;;;10.46;78.92;103051.88;5015624;28;20053;-89
2021/03/18 03:05:34;;;;;;;19.48;10.77;;;;;;;10.42;79.11;103043.28;5022337;28;20048;-90
2021/03/18 03:08:05;;;;;;;21.10;11.48;;;;;;;10.42;79.42;103048.84;4997057;28;20046;-91
2021/03/18 03:10:32;;;;;;;21.20;10.75;;;;;;;10.40;79.32;103042.75;4997111;28;20133;-90
2021/03/18 03:12:59;;;;;;;21.88;10.85;;;;;;;10.42;79.23;103034.16;5013990;28;20042;-90
2021/03/18 03:15:29;;;;;;;22.50;11.27;;;;;;;10.42;79.26;103034.16;5012915;28;20098;-91
2021/03/18 03:17:58;;;;;;;20.00;9.27;;;;;;;10.42;79.38;103039.69;5012693;28;20592;-92
2021/03/18 03:20:26;;;;;;;17.58;10.45;;;;;;;10.44;79.38;103037.47;5012503;28;20096;-91
2021/03/18 03:22:55;;;;;;;17.00;8.55;;;;;;;10.38;79.80;103043.03;5012553;28;20140;-91
2021/03/18 03:25:22;;;;;;;14.18;8.55;;;;;;;10.39;79.65;103033.63;5014368;28;20084;-91
2021/03/18 03:27:49;;;;;;;14.60;9.27;;;;;;;10.40;79.59;103035.25;5014203;28;20132;-90
2021/03/18 03:30:16;;;;;;;12.07;8.00;;;;;;;10.39;79.73;103039.16;5013884;28;20042;-91
2021/03/18 03:32:45;;;;;;;17.80;8.45;;;;;;;10.40;79.66;103038.03;5012953;28;20069;-90
2021/03/18 03:35:13;;;;;;;14.50;8.15;;;;;;;10.38;79.93;103039.44;5042238;28;20042;-90
2021/03/18 03:37:42;;;;;;;15.63;9.07;;;;;;;10.34;79.89;103035.59;4997041;28;20049;-89
2021/03/18 03:40:10;;;;;;;17.88;8.02;;;;;;;10.28;80.15;103032.03;5016854;28;20069;-90
2021/03/18 03:42:37;;;;;;;12.98;7.90;;;;;;;10.24;80.31;103030.97;5014216;28;20042;-90
2021/03/18 03:45:10;;;;;;;14.82;7.13;;;;;;;10.19;80.56;103033.75;5014106;28;20129;-90
2021/03/18 03:47:41;;;;;;;12.23;7.78;;;;;;;10.22;80.30;103038.72;5013943;28;20042;-90
2021/03/18 03:50:13;;;;;;;10.75;7.05;;;;;;;10.26;80.42;103027.91;5013053;28;20077;-89
2021/03/18 03:53:15;;;;;;;12.30;7.68;;;;;;;10.25;80.59;103038.16;5013186;28;20038;-90
2021/03/18 03:55:55;;;;;;;14.10;7.88;;;;;;;10.24;80.43;103025.44;5005621;28;20077;-90
2021/03/18 03:58:21;;;;;;;12.32;6.68;;;;;;;10.26;80.56;103027.91;5013646;28;20559;-90
2021/03/18 04:00:49;;;;;;;12.88;7.45;;;;;;;10.24;80.55;103014.38;5013782;28;20073;-90
2021/03/18 04:03:17;;;;;;;10.82;6.78;;;;;;;10.27;80.65;103019.28;5013711;28;20057;-90
2021/03/18 04:05:46;;;;;;;9.35;6.38;;;;;;;10.23;80.83;103036.78;5013653;28;20049;-89
2021/03/18 04:08:15;;;;;;;11.38;6.60;;;;;;;10.21;80.81;103037.09;5015174;28;20045;-89
2021/03/18 04:10:44;;;;;;;9.52;5.78;;;;;;;10.15;81.09;103038.22;5017540;28;20505;-91
2021/03/18 04:13:12;;;;;;;7.10;5.13;;;;;;;10.14;80.73;103039.31;5017767;28;20062;-90
2021/03/18 04:15:39;;;;;;;5.10;3.17;;;;;;;10.06;80.83;103039.88;4997158;28;20104;-90
2021/03/18 04:18:09;;;;;;;4.32;2.70;;;;;;;10.04;80.94;103030.22;5013534;28;20474;-90
2021/03/18 04:20:38;;;;;;;3.08;2.40;;;;;;;10.04;80.57;103031.06;5000174;28;20042;-90
2021/03/18 04:23:08;;;;;;;4.25;2.30;;;;;;;10.04;80.33;103025.53;5016557;28;20121;-91
2021/03/18 04:25:35;;;;;;;3.95;2.08;;;;;;;10.05;80.36;103032.72;5016033;28;20482;-90
2021/03/18 04:28:03;;;;;;;4.88;2.30;;;;;;;10.07;80.08;103036.03;5017253;28;20065;-89
2021/03/18 04:30:30;;;;;;;2.88;2.03;;;;;;;10.09;79.97;103025.50;5016179;28;20049;-90
2021/03/18 04:33:00;;;;;;;1.90;1.70;;;;;;;10.10;80.22;103034.63;5000099;28;20386;-90
2021/03/18 04:35:27;;;;;;;3.20;1.83;;;;;;;10.11;80.05;103045.41;5017425;28;20045;-90
2021/03/18 04:37:57;;;;;;;3.05;2.20;;;;;;;10.06;80.27;103031.59;5016515;28;20525;-90
2021/03/18 04:40:23;;;;;;;2.75;2.00;;;;;;;10.06;80.26;103028.81;5016601;28;20512;-90
2021/03/18 04:42:51;;;;;;;2.92;1.85;;;;;;;10.05;80.53;103027.19;5016527;28;20045;-89
2021/03/18 04:45:20;;;;;;;2.15;1.95;;;;;;;10.03;80.68;103029.41;5016330;28;20042;-90
2021/03/18 04:47:48;;;;;;;3.50;1.80;;;;;;;10.04;80.40;103030.22;5016317;28;20129;-90
2021/03/18 04:50:19;;;;;;;2.92;2.05;;;;;;;10.05;80.63;103026.34;5017377;28;20038;-90
2021/03/18 04:52:47;;;;;;;2.85;2.08;;;;;;;10.06;80.46;103026.06;5016646;28;20073;-90
2021/03/18 04:55:16;;;;;;;3.85;2.55;;;;;;;10.00;80.63;103026.38;5015571;28;20081;-90
2021/03/18 04:57:47;;;;;;;2.63;2.08;;;;;;;10.00;81.03;103030.00;5015878;28;20053;-90
2021/03/18 05:00:17;;;;;;;3.53;2.38;;;;;;;9.99;80.89;103027.50;5015554;28;20080;-90
2021/03/18 05:02:44;;;;;;;3.55;2.35;;;;;;;10.01;80.86;103028.84;5014723;28;20089;-91
2021/03/18 05:05:16;;;;;;;;;;;;;;;9.98;81.29;103036.91;5027876;28;20056;-90
2021/03/18 05:07:45;;;;;;;3.28;2.10;;;;;;;10.00;80.61;103024.44;5012851;28;19925;-89
2021/03/18 05:10:16;;;;;;;3.55;2.60;;;;;;;10.06;80.55;103036.31;5015353;28;20076;-89
2021/03/18 05:12:43;;;;;;;4.70;2.85;;;;;;;10.07;80.58;103038.78;5013818;28;20045;-90
2021/03/18 05:15:13;;;;;;;4.65;2.45;;;;;;;10.05;80.94;103027.19;5016736;28;20535;-91
2021/03/18 05:17:40;;;;;;;5.03;2.95;;;;;;;10.04;81.14;103031.06;5029858;28;20077;-90
2021/03/18 05:20:09;;;;;;;4.57;3.47;;;;;;;10.01;81.15;103034.38;5029460;28;20038;-89
2021/03/18 05:22:35;;;;;;;5.45;3.85;;;;;;;10.03;81.17;103029.41;5016879;28;20042;-90
2021/03/18 05:25:04;;;;;;;5.50;3.10;;;;;;;10.00;81.36;103038.28;5016476;28;20140;-90
2021/03/18 05:27:31;;;;;;;8.50;3.80;;;;;;;9.93;81.46;103035.00;5016425;28;20038;-89
2021/03/18 05:29:58;;;;;;;4.55;3.42;;;;;;;9.97;81.34;103033.31;4998793;28;20081;-89
2021/03/18 05:32:27;;;;;;;4.43;3.08;;;;;;;9.96;81.33;103039.97;4998303;28;20045;-91
2021/03/18 05:34:54;;;;;;;3.47;2.60;;;;;;;9.97;81.30;103036.09;5014752;28;20116;-92
2021/03/18 05:37:20;;;;;;;3.90;2.67;;;;;;;9.95;81.16;103038.31;4998334;28;20077;-90
2021/03/18 05:39:47;;;;;;;5.65;2.67;;;;;;;9.92;81.27;103021.44;4998100;28;20133;-89
2021/03/18 05:42:13;;;;;;;3.10;2.70;;;;;;;9.91;81.27;103028.91;4998790;28;20085;-90
2021/03/18 05:44:39;;;;;;;3.92;2.35;;;;;;;9.89;81.19;103036.69;4998546;28;20096;-89
2021/03/18 05:47:07;;;;;;;3.00;1.75;;;;;;;9.83;81.17;103037.81;5015319;28;20038;-90
2021/03/18 05:49:34;;;;;;;4.03;2.03;;;;;;;9.80;81.09;103025.38;5015408;28;20046;-91
2021/03/18 05:52:02;;;;;;;3.20;1.70;;;;;;;9.82;80.92;103027.88;5015457;28;20076;-89
2021/03/18 05:54:29;;;;;;;3.08;2.15;;;;;;;9.83;80.76;103029.50;5014027;28;20088;-90
2021/03/18 05:56:58;;;;;;;3.25;2.15;;;;;;;9.84;80.70;103014.59;5015839;28;20153;-89
2021/03/18 05:59:28;;;;;;;3.22;1.90;;;;;;;9.82;80.94;103027.88;5014624;28;20041;-90
2021/03/18 06:01:55;;;;;;;2.22;1.85;;;;;;;9.76;81.03;103017.94;5014707;28;20097;-91
2021/03/18 06:04:22;;;;;;;4.00;2.05;;;;;;;9.78;80.89;103024.00;5015658;28;20077;-90
2021/03/18 06:06:49;;;;;;;2.92;2.00;;;;;;;9.76;80.94;103016.00;5015195;28;20045;-90
2021/03/18 06:09:16;;;;;;;3.63;2.17;;;;;;;9.74;81.00;103017.41;5014400;28;20133;-90
2021/03/18 06:11:43;;;;;;;3.63;2.30;;;;;;;9.75;80.89;103016.28;4997055;28;20478;-90
2021/03/18 06:14:09;;;;;;;4.05;2.58;;;;;;;9.77;80.89;103014.03;5015659;28;20076;-89
2021/03/18 06:16:38;;;;;;;4.85;2.85;;;;;;;9.79;81.15;103022.91;5015698;28;20045;-90
2021/03/18 06:19:09;;;;;;;5.68;3.00;;;;;;;9.80;81.17;103024.53;5015717;28;20042;-90
2021/03/18 06:21:46;;;;;;;5.63;3.47;;;;;;;9.74;81.09;103020.97;5014768;28;20436;-90
2021/03/18 06:24:16;;;;;;;4.18;2.40;;;;;;;9.70;81.17;103027.38;5014291;28;20048;-90
2021/03/18 06:26:42;;;;;;;3.47;2.20;;;;;;;9.67;80.88;103025.16;5013998;28;20491;-89
2021/03/18 06:29:39;;;;;;;2.78;2.22;;;;;;;9.67;81.13;103005.81;4998234;28;20060;-90
2021/03/18 06:32:17;;;;;;;4.28;2.63;;;;;;;9.68;80.79;103010.25;5001196;28;20084;-90
2021/03/18 06:34:45;;;;;;;3.90;2.45;;;;;;;9.71;80.80;103013.28;5014939;28;20034;-90
2021/03/18 06:37:32;;;;;;;2.50;2.03;;;;;;;9.68;80.86;103004.72;5014916;28;20037;-90
2021/03/18 06:40:05;;;;;;;8.25;3.70;;;;;;;9.72;80.79;103005.78;5021336;28;20046;-90
2021/03/18 06:42:33;;;;;;;5.30;2.95;;;;;;;9.72;80.68;103011.31;5013928;28;20097;-91
2021/03/18 06:45:12;;;;;;;3.63;2.45;;;;;;;9.69;81.11;103003.56;5013766;28;20077;-90
2021/03/18 06:47:48;;;;;;;3.88;2.22;;;;;;;9.69;80.68;103000.81;4993857;28;20054;-90
2021/03/18 06:50:30;;;;;;;3.72;2.13;;;;;;;9.66;81.19;103004.16;4994160;28;20042;-90
2021/03/18 06:52:56;;;;;;;4.00;2.97;;;;;;;9.69;80.78;103009.94;5009683;28;20041;-90
2021/03/18 06:55:42;;;;;;;4.65;2.67;;;;;;;9.65;81.25;103011.63;5014466;28;20287;-90
2021/03/18 06:58:27;;;;;;;6.60;2.50;;;;;;;9.67;81.06;103005.81;4994577;28;20049;-91
2021/03/18 07:01:00;;;;;;;5.00;3.22;;;;;;;9.67;80.87;103011.34;5014246;28;20042;-91
2021/03/18 07:03:33;;;;;;;6.38;3.20;;;;;;;9.67;80.87;102998.34;4981843;28;20041;-91
2021/03/18 07:06:03;;;;;;;4.13;2.97;;;;;;;9.69;80.75;102990.56;5006442;28;20038;-89
2021/03/18 07:08:32;;;;;;;5.53;3.55;;;;;;;9.70;80.66;102996.94;5013914;28;20046;-91
2021/03/18 07:11:01;;;;;;;4.18;2.63;;;;;;;9.69;80.69;102989.75;5014093;28;20046;-90
2021/03/18 07:13:31;;;;;;;5.90;3.33;;;;;;;9.71;80.42;102999.44;5003656;28;20048;-90
2021/03/18 07:15:59;;;;;;;2.72;2.47;;;;;;;9.71;80.65;102987.53;4997137;28;20084;-91
2021/03/18 07:18:27;;;;;;;4.10;3.03;;;;;;;9.68;80.96;102990.88;5014616;28;20073;-90
2021/03/18 07:21:07;;;;;;;3.67;1.75;;;;;;;9.64;80.97;102989.78;4997217;28;20038;-92
2021/03/18 07:23:46;;;;;;;3.28;2.10;;;;;;;9.61;81.18;102985.63;4997680;28;20046;-90
2021/03/18 07:26:15;;;;;;;4.00;1.73;;;;;;;9.63;80.92;102985.38;5003375;28;20053;-91
2021/03/18 07:28:44;;;;;;;4.68;1.63;;;;;;;9.67;80.79;102986.44;5012510;28;20129;-90
2021/03/18 07:31:12;;;;;;;7.40;1.70;;;;;;;9.70;80.95;102985.88;5014243;28;20046;-90
2021/03/18 07:33:38;;;;;;;2.13;1.40;;;;;;;9.72;80.79;102983.66;4996117;28;20041;-90
2021/03/18 07:36:05;;;;;;;1.98;1.20;;;;;;;9.72;80.89;102986.41;5001705;28;20046;-92
2021/03/18 07:38:31;;;;;;;1.10;0.90;;;;;;;9.71;81.23;102987.53;4998357;28;20103;-91
2021/03/18 07:41:00;;;;;;;2.33;1.17;;;;;;;9.73;80.89;102985.31;4977851;28;20483;-90
2021/03/18 07:43:26;;;;;;;1.92;0.85;;;;;;;9.71;81.04;102998.59;4981460;28;20494;-90
2021/03/18 07:45:53;;;;;;;2.97;1.10;;;;;;;9.67;81.10;102998.34;4998641;28;20043;-91
2021/03/18 07:48:21;;;;;;;1.55;1.23;;;;;;;9.69;81.11;102998.03;5000861;28;20120;-89
2021/03/18 07:50:50;;;;;;;1.13;0.70;;;;;;;9.72;81.08;102989.19;5017957;28;20073;-91
2021/03/18 07:53:20;;;;;;;2.25;1.02;;;;;;;9.73;81.13;102990.84;5000840;28;20074;-90
2021/03/18 07:55:48;;;;;;;0.93;0.60;;;;;;;9.77;81.06;102994.69;4996301;28;20050;-91
2021/03/18 07:58:49;;;;;;;1.48;0.60;;;;;;;9.75;81.28;102988.63;5018147;28;20046;-92
2021/03/18 08:01:30;;;;;;;1.25;0.70;;;;;;;9.77;81.32;102995.50;5017023;28;20046;-92
2021/03/18 08:03:59;;;;;;;0.85;0.32;;;;;;;9.82;81.00;102989.16;5018780;28;20533;-91
2021/03/18 08:06:40;;;;;;;1.45;0.60;;;;;;;9.84;81.34;102991.63;5017541;28;20084;-91
2021/03/18 08:09:17;;;;;;;1.50;0.80;;;;;;;9.88;80.99;102987.97;5017965;28;20117;-90
2021/03/18 08:11:46;;;;;;;1.05;0.98;;;;;;;9.89;80.94;102975.81;5016239;28;20049;-91
2021/03/18 08:14:15;;;;;;;3.83;2.45;;;;;;;9.90;80.89;102974.69;5000170;28;20136;-91
2021/03/18 08:16:41;;;;;;;1.20;1.10;;;;;;;9.88;80.98;102970.56;5019055;28;20232;-90
2021/03/18 08:19:12;;;;;;;4.57;1.80;;;;;;;9.94;80.93;102969.41;5032789;28;20089;-90
2021/03/18 08:21:39;;;;;;;1.25;0.88;;;;;;;9.99;80.97;102972.13;5016067;28;20045;-90
2021/03/18 08:24:08;;;;;;;3.60;1.85;;;;;;;10.01;80.92;102970.75;5017404;28;20077;-90
2021/03/18 08:26:51;;;;;;;1.25;0.85;;;;;;;10.03;80.98;102960.22;5016352;28;20034;-89
2021/03/18 08:29:21;;;;;;;1.30;0.80;;;;;;;10.10;80.98;102963.50;5016131;28;20062;-90
2021/03/18 08:32:00;;;;;;;1.48;1.15;;;;;;;10.13;81.21;102975.97;5017033;28;20073;-90
2021/03/18 08:34:44;;;;;;;0.90;0.60;;;;;;;10.20;81.04;102963.44;5016106;28;20056;-91
2021/03/18 08:37:12;;;;;;;1.33;0.93;;;;;;;10.29;80.82;102958.94;4997969;28;20046;-90
2021/03/18 08:39:50;;;;;;;2.70;0.65;;;;;;;10.34;80.77;102963.63;4981497;28;20034;-90
2021/03/18 08:42:30;;;;;;;1.52;0.82;;;;;;;10.34;80.99;102961.66;4996372;28;20046;-90
2021/03/18 08:45:00;;;;;;;0.50;0.50;;;;;;;10.37;80.80;102952.78;4996369;28;20153;-90
2021/03/18 08:47:45;;;;;;;0.63;0.50;;;;;;;10.45;81.06;102950.50;5013707;28;20049;-91
2021/03/18 08:50:23;;;;;;;0.90;0.53;;;;;;;10.52;80.76;102942.66;5016855;28;20045;-91
2021/03/18 08:52:50;;;;;;;;;;;;;;;10.55;80.67;102944.88;5016427;28;20038;-91
2021/03/18 08:55:36;;;;;;;1.65;0.65;;;;;;;10.59;80.47;102945.94;5016424;28;19983;-91
2021/03/18 08:58:04;;;;;;;0.95;0.70;;;;;;;10.58;80.53;102947.06;5016189;28;20501;-93
2021/03/18 09:00:34;;;;;;;1.88;1.23;;;;;;;10.61;80.28;102952.00;5016739;28;20046;-91
2021/03/18 09:03:01;;;;;;;0.55;0.50;;;;;;;10.70;80.39;102955.78;5016823;28;20493;-91
2021/03/18 09:05:28;;;;;;;0.43;0.40;;;;;;;10.66;80.37;102955.56;4999412;28;20072;-91
2021/03/18 09:07:58;;;;;;;0.95;0.70;;;;;;;10.68;80.34;102952.50;5016127;28;20504;-91
2021/03/18 09:10:30;;;;;;;0.63;0.60;;;;;;;10.70;80.39;102961.31;5015961;28;20104;-91
2021/03/18 09:12:59;;;;;;;0.52;0.50;;;;;;;10.72;80.34;102959.13;4983198;28;20042;-91
2021/03/18 09:15:38;;;;;;;1.30;0.40;;;;;;;10.72;80.52;102948.84;4998438;28;20076;-92
2021/03/18 09:18:18;;;;;;;1.20;1.10;;;;;;;10.69;80.71;102956.91;5016525;28;20038;-93
2021/03/18 09:20:58;;;;;;;1.20;0.57;;;;;;;10.69;80.54;102949.44;5011608;28;21077;-93
2021/03/18 09:23:36;;;;;;;0.95;0.50;;;;;;;10.71;80.78;102943.59;5010829;28;20044;-93
2021/03/18 09:26:06;;;;;;;0.93;0.45;;;;;;;10.73;80.52;102949.66;5015369;28;20046;-91
2021/03/18 09:28:47;;;;;;;2.05;0.88;;;;;;;10.70;80.97;102945.53;5015711;28;20117;-90
2021/03/18 09:31:19;;;;;;;0.55;0.55;;;;;;;10.68;80.73;102944.19;4998821;28;20046;-90
2021/03/18 09:33:46;;;;;;;;;;;;;;;10.68;81.14;102935.88;4999948;28;20046;-92
2021/03/18 09:36:16;;;;;;;1.65;1.55;;;;;;;10.72;80.56;102942.50;5016465;28;19921;-93
2021/03/18 09:39:05;;;;;;;1.00;0.80;;;;;;;10.79;80.73;102932.72;4996003;28;20092;-95
2021/03/18 09:41:39;;;;;;;1.52;0.82;;;;;;;10.84;80.75;102934.59;4995574;28;20038;-93
2021/03/18 09:44:11;;;;;;;0.80;0.80;;;;;;;10.85;80.63;102944.56;5004146;28;20045;-90
2021/03/18 09:46:39;;;;;;;;;;;;;;;10.84;81.00;102929.03;4985801;28;20096;-92
2021/03/18 09:49:07;;;;;;;1.25;0.85;;;;;;;10.92;80.68;102937.53;5014438;28;19970;-91
2021/03/18 09:51:37;;;;;;;0.77;0.63;;;;;;;10.97;80.52;102933.88;5015094;28;20068;-92
2021/03/18 09:54:09;;;;;;;2.00;0.98;;;;;;;11.02;80.53;102928.28;5017052;28;20042;-93
2021/03/18 09:56:39;;;;;;;2.33;1.38;;;;;;;11.08;80.57;102917.97;4995640;28;20046;-91
2021/03/18 09:59:08;;;;;;;2.20;1.38;;;;;;;11.17;80.31;102925.34;4995270;28;20065;-91
2021/03/18 10:01:35;;;;;;;1.85;0.57;;;;;;;11.21;80.36;102923.63;5002016;28;20478;-88
2021/03/18 10:04:08;;;;;;;1.35;0.98;;;;;;;11.23;80.35;102929.69;5014647;28;20046;-90
2021/03/18 10:06:34;;;;;;;0.82;0.82;;;;;;;11.25;80.25;102924.66;4996914;28;20041;-90
2021/03/18 10:09:32;;;;;;;2.95;0.93;;;;;;;11.21;80.21;102931.94;4998193;28;20042;-89
2021/03/18 10:12:08;;;;;;;1.58;1.13;;;;;;;11.22;80.19;102930.81;5014325;28;20397;-86
2021/03/18 10:14:34;;;;;;;3.30;1.10;;;;;;;11.26;80.21;102926.31;5014685;28;20042;-93
2021/03/18 10:17:07;;;;;;;2.03;1.90;;;;;;;11.29;80.01;102942.38;5014581;28;20053;-93
2021/03/18 10:19:37;;;;;;;3.80;1.27;;;;;;;11.23;80.02;102926.91;5009968;28;20113;-94
2021/03/18 10:22:08;;;;;;;2.55;1.40;;;;;;;11.25;79.94;102912.75;5014079;28;20077;-94
2021/03/18 10:24:35;;;;;;;2.17;1.10;;;;;;;11.28;80.04;102918.53;5014833;28;20131;-93
2021/03/18 10:27:09;;;;;;;1.52;0.90;;;;;;;11.35;80.13;102921.78;5014414;28;20081;-94
2021/03/18 10:29:37;;;;;;;2.05;1.85;;;;;;;11.48;79.63;102926.59;5013613;28;20034;-94
2021/03/18 10:32:10;;;;;;;2.10;2.00;;;;;;;11.54;79.61;102922.59;4999574;28;20046;-94
2021/03/18 10:34:38;;;;;;;2.50;1.23;;;;;;;11.52;79.65;102930.41;5014638;28;20490;-92
2021/03/18 10:37:32;;;;;;;2.08;1.33;;;;;;;11.48;79.24;102923.81;4998755;28;20054;-93
2021/03/18 10:40:14;;;;;;;2.17;1.42;;;;;;;11.57;79.22;102916.47;4992660;28;20511;-93
2021/03/18 10:42:41;;;;;;;2.85;1.40;;;;;;;11.67;79.46;102923.00;5015110;28;20362;-93
2021/03/18 10:45:30;;;;;;;1.35;1.25;;;;;;;11.70;79.00;102919.66;4977437;28;20050;-96
2021/03/18 10:48:00;;;;;;;3.08;2.13;;;;;;;11.64;79.01;102927.19;5023309;28;20059;-94
2021/03/18 10:50:29;;;;;;;1.90;1.10;;;;;;;11.67;78.79;102923.00;5000998;28;20046;-93
2021/03/18 10:53:04;;;;;;;1.00;0.90;;;;;;;11.68;78.83;102917.13;4993770;28;20134;-94
2021/03/18 10:55:44;;;;;;;1.85;1.02;;;;;;;11.83;78.81;102913.34;5003814;28;20058;-94
2021/03/18 10:58:16;;;;;;;4.53;1.80;;;;;;;12.10;78.82;102907.91;5012636;28;20042;-94
2021/03/18 11:00:43;;;;;;;4.78;1.48;;;;;;;12.33;78.17;102900.56;4995349;28;20085;-94
2021/03/18 11:03:15;;;;;;;3.03;1.50;;;;;;;12.56;77.34;102911.53;5013211;28;20066;-93
2021/03/18 11:05:48;;;;;;;3.58;1.65;;;;;;;12.57;77.14;102907.63;5012418;28;20462;-92
2021/03/18 11:08:24;;;;;;;2.17;1.90;;;;;;;12.62;77.28;102899.22;5013818;28;20474;-94
2021/03/18 11:10:51;;;;;;;2.15;1.75;;;;;;;12.64;76.80;102896.94;5012642;28;20048;-94
2021/03/18 11:13:29;;;;;;;1.77;1.67;;;;;;;12.62;76.37;102888.09;5012615;28;20437;-94
2021/03/18 11:16:04;;;;;;;2.20;1.60;;;;;;;12.73;76.24;102889.50;5011866;28;20038;-94
2021/03/18 11:18:33;;;;;;;1.67;1.48;;;;;;;12.80;76.64;102887.19;5014041;28;20097;-93
2021/03/18 11:21:01;;;;;;;3.58;1.42;;;;;;;12.90;76.43;102888.09;5013905;28;20038;-94
2021/03/18 11:23:34;;;;;;;1.27;1.17;;;;;;;13.03;75.37;102890.88;5013660;28;20512;-95
2021/03/18 11:26:05;;;;;;;1.73;1.63;;;;;;;13.12;75.65;102874.31;5013669;28;20054;-94
2021/03/18 11:28:35;;;;;;;2.53;1.70;;;;;;;13.08;75.18;102874.09;5005116;28;20083;-93
2021/03/18 11:31:11;;;;;;;4.25;1.85;;;;;;;13.07;74.89;102875.25;5017718;28;20053;-92
2021/03/18 11:33:39;;;;;;;1.40;1.30;;;;;;;13.05;75.02;102869.13;5010745;28;20061;-93
2021/03/18 11:36:07;;;;;;;2.30;1.63;;;;;;;13.04;75.05;102872.22;5011278;28;20045;-95
2021/03/18 11:38:34;;;;;;;3.60;2.13;;;;;;;13.05;74.79;102871.91;5010615;28;20078;-94
2021/03/18 11:41:01;;;;;;;2.45;1.70;;;;;;;13.04;74.90;102873.06;5010919;28;20482;-94
2021/03/18 11:43:27;;;;;;;2.50;1.70;;;;;;;13.03;74.65;102870.56;5011866;28;20042;-94
2021/03/18 11:45:55;;;;;;;3.92;1.70;;;;;;;13.02;74.73;102863.38;5013295;28;20046;-94